createdAt,value
2018-05-10T00:00:17.590Z,83.84
2018-05-10T00:01:17.507Z,84.31
2018-05-10T00:02:17.425Z,85.27
2018-05-10T00:03:17.356Z,84.88
2018-05-10T00:04:17.278Z,84.98
2018-05-10T00:05:17.201Z,84.41
2018-05-10T00:06:17.134Z,82.12
2018-05-10T00:07:17.048Z,81.74
2018-05-10T00:08:16.971Z,82.41
2018-05-10T00:09:16.899Z,82.69
2018-05-10T00:10:16.818Z,83.65
2018-05-10T00:11:16.745Z,82.50
2018-05-10T00:12:16.677Z,81.93
2018-05-10T00:13:16.599Z,81.46
2018-05-10T00:14:16.519Z,80.69
2018-05-10T00:15:16.458Z,79.93
2018-05-10T00:16:16.363Z,79.07
2018-05-10T00:17:16.294Z,79.64
2018-05-10T00:18:16.218Z,78.88
2018-05-10T00:19:16.135Z,80.12
2018-05-10T00:20:16.064Z,81.36
2018-05-10T00:21:15.994Z,82.41
2018-05-10T00:22:15.914Z,81.84
2018-05-10T00:23:15.844Z,80.69
2018-05-10T00:24:15.835Z,79.13
2018-05-10T00:25:15.692Z,78.65
2018-05-10T00:26:15.609Z,78.65
2018-05-10T00:27:15.614Z,78.85
2018-05-10T00:28:15.463Z,80.84
2018-05-10T00:29:15.386Z,81.79
2018-05-10T00:30:15.313Z,81.70
2018-05-10T00:31:15.234Z,82.46
2018-05-10T00:32:15.155Z,83.80
2018-05-10T00:33:15.088Z,84.17
2018-05-10T00:34:15.019Z,83.55
2018-05-10T00:35:14.927Z,82.03
2018-05-10T00:36:14.864Z,82.65
2018-05-10T00:37:14.774Z,82.31
2018-05-10T00:38:14.693Z,83.32
2018-05-10T00:39:14.627Z,83.45
2018-05-10T00:40:14.549Z,84.41
2018-05-10T00:41:14.476Z,84.98
2018-05-10T00:42:14.402Z,85.84
2018-05-10T00:43:14.319Z,85.08
2018-05-10T00:44:14.240Z,85.64
2018-05-10T00:45:14.183Z,85.08
2018-05-10T00:46:14.091Z,84.41
2018-05-10T00:47:14.022Z,84.79
2018-05-10T00:48:13.953Z,84.46
2018-05-10T00:49:13.864Z,84.17
2018-05-10T00:50:13.781Z,84.17
2018-05-10T00:51:13.720Z,84.94
2018-05-10T00:52:13.635Z,85.70
2018-05-10T00:53:13.562Z,86.36
2018-05-10T00:54:13.487Z,87.23
2018-05-10T00:55:13.402Z,87.89
2018-05-10T00:56:13.331Z,87.41
2018-05-10T00:57:13.264Z,87.23
2018-05-10T00:58:13.185Z,87.98
2018-05-10T00:59:13.104Z,88.84
2018-05-10T01:00:13.035Z,88.84
2018-05-10T01:01:12.954Z,89.51
2018-05-10T01:02:12.875Z,89.89
2018-05-10T01:03:12.797Z,89.61
2018-05-10T01:04:12.735Z,88.99
2018-05-10T01:05:12.664Z,86.51
2018-05-10T01:06:12.580Z,85.18
2018-05-10T01:07:12.501Z,84.42
2018-05-10T01:08:12.418Z,84.13
2018-05-10T01:09:12.352Z,84.89
2018-05-10T01:10:12.262Z,85.94
2018-05-10T01:11:12.192Z,86.42
2018-05-10T01:12:12.124Z,87.18
2018-05-10T01:13:12.036Z,87.27
2018-05-10T01:14:11.957Z,88.42
2018-05-10T01:15:11.893Z,88.93
2018-05-10T01:16:11.811Z,89.41
2018-05-10T01:17:11.741Z,88.93
2018-05-10T01:18:11.660Z,88.46
2018-05-10T01:19:11.593Z,87.41
2018-05-10T01:20:11.505Z,86.08
2018-05-10T01:21:11.432Z,86.51
2018-05-10T01:22:11.354Z,87.18
2018-05-10T01:23:11.276Z,87.37
2018-05-10T01:24:11.204Z,88.04
2018-05-10T01:25:11.143Z,88.99
2018-05-10T01:26:11.049Z,89.47
2018-05-10T01:27:10.975Z,89.84
2018-05-10T01:28:10.893Z,89.47
2018-05-10T01:29:10.816Z,90.32
2018-05-10T01:30:10.743Z,90.03
2018-05-10T01:31:10.671Z,89.47
2018-05-10T01:32:10.585Z,89.37
2018-05-10T01:33:10.520Z,88.79
2018-05-10T01:34:10.436Z,87.75
2018-05-10T01:35:10.359Z,86.42
2018-05-10T01:36:10.283Z,84.13
2018-05-10T01:37:10.216Z,82.80
2018-05-10T01:38:10.136Z,82.42
2018-05-10T01:39:10.057Z,83.65
2018-05-10T01:40:09.983Z,85.37
2018-05-10T01:41:09.908Z,87.46
2018-05-10T01:42:09.841Z,88.89
2018-05-10T01:43:09.754Z,89.56
2018-05-10T01:44:09.672Z,90.32
2018-05-10T01:45:09.610Z,91.56
2018-05-10T01:46:09.514Z,91.08
2018-05-10T01:47:09.445Z,90.80
2018-05-10T01:48:09.367Z,91.75
2018-05-10T01:49:09.297Z,92.13
2018-05-10T01:50:09.213Z,92.60
2018-05-10T01:51:09.142Z,92.60
2018-05-10T01:52:09.069Z,92.22
2018-05-10T01:53:08.983Z,92.70
2018-05-10T01:54:08.909Z,91.84
2018-05-10T01:55:08.835Z,91.75
2018-05-10T01:56:08.758Z,91.46
2018-05-10T01:57:08.686Z,91.56
2018-05-10T01:58:08.605Z,91.37
2018-05-10T01:59:08.525Z,90.70
2018-05-10T02:00:08.456Z,90.61
2018-05-10T02:01:08.383Z,90.32
2018-05-10T02:02:08.301Z,89.47
2018-05-10T02:03:08.224Z,90.22
2018-05-10T02:04:08.152Z,90.22
2018-05-10T02:05:08.080Z,89.75
2018-05-10T02:06:07.989Z,88.89
2018-05-10T02:07:07.925Z,88.60
2018-05-10T02:08:08.425Z,89.56
2018-05-10T02:09:07.762Z,89.37
2018-05-10T02:10:07.692Z,90.22
2018-05-10T02:11:07.619Z,89.65
2018-05-10T02:12:07.530Z,89.65
2018-05-10T02:13:07.462Z,89.47
2018-05-10T02:14:07.379Z,90.32
2018-05-10T02:15:07.309Z,90.61
2018-05-10T02:16:07.227Z,91.75
2018-05-10T02:17:07.154Z,91.84
2018-05-10T02:18:07.083Z,91.46
2018-05-10T02:19:07.004Z,91.84
2018-05-10T02:20:06.919Z,91.84
2018-05-10T02:21:06.885Z,91.56
2018-05-10T02:22:06.773Z,91.46
2018-05-10T02:23:06.688Z,90.51
2018-05-10T02:24:06.627Z,89.75
2018-05-10T02:25:06.541Z,87.99
2018-05-10T02:26:06.459Z,84.09
2018-05-10T02:27:06.393Z,82.09
2018-05-10T02:28:06.310Z,82.57
2018-05-10T02:29:06.232Z,84.19
2018-05-10T02:30:06.157Z,86.38
2018-05-10T02:31:06.078Z,89.42
2018-05-10T02:32:06.003Z,90.75
2018-05-10T02:33:05.927Z,91.61
2018-05-10T02:34:05.858Z,92.84
2018-05-10T02:35:05.778Z,92.94
2018-05-10T02:36:05.695Z,93.32
2018-05-10T02:37:05.626Z,93.41
2018-05-10T02:38:05.552Z,93.32
2018-05-10T02:39:05.469Z,92.75
2018-05-10T02:40:05.394Z,92.65
2018-05-10T02:41:05.321Z,92.75
2018-05-10T02:42:05.235Z,91.80
2018-05-10T02:43:05.163Z,89.89
2018-05-10T02:44:05.098Z,89.23
2018-05-10T02:45:05.076Z,87.52
2018-05-10T02:46:04.933Z,86.38
2018-05-10T02:47:04.860Z,85.71
2018-05-10T02:48:04.775Z,85.61
2018-05-10T02:49:04.704Z,85.04
2018-05-10T02:50:04.631Z,85.52
2018-05-10T02:51:04.539Z,85.80
2018-05-10T02:52:04.484Z,84.19
2018-05-10T02:53:04.398Z,83.33
2018-05-10T02:54:04.314Z,83.42
2018-05-10T02:55:04.240Z,85.24
2018-05-10T02:56:04.165Z,85.24
2018-05-10T02:57:04.084Z,84.95
2018-05-10T02:58:04.014Z,84.09
2018-05-10T02:59:03.937Z,82.95
2018-05-10T03:00:03.860Z,83.23
2018-05-10T03:01:04.781Z,83.23
2018-05-10T03:02:03.705Z,86.38
2018-05-10T03:03:03.623Z,88.18
2018-05-10T03:04:03.555Z,89.51
2018-05-10T03:05:03.475Z,89.99
2018-05-10T03:06:03.390Z,89.61
2018-05-10T03:07:03.323Z,87.90
2018-05-10T03:08:03.243Z,85.90
2018-05-10T03:09:03.162Z,84.09
2018-05-10T03:10:03.098Z,83.42
2018-05-10T03:11:03.015Z,82.57
2018-05-10T03:12:02.930Z,83.14
2018-05-10T03:13:02.861Z,84.85
2018-05-10T03:14:02.787Z,87.32
2018-05-10T03:15:02.702Z,88.75
2018-05-10T03:16:02.630Z,89.70
2018-05-10T03:17:02.553Z,89.99
2018-05-10T03:18:02.473Z,89.89
2018-05-10T03:19:02.401Z,90.08
2018-05-10T03:20:02.322Z,90.18
2018-05-10T03:21:02.238Z,89.89
2018-05-10T03:22:02.168Z,87.23
2018-05-10T03:23:02.090Z,87.42
2018-05-10T03:24:02.012Z,88.37
2018-05-10T03:25:02.041Z,89.51
2018-05-10T03:26:01.944Z,90.18
2018-05-10T03:27:01.776Z,91.13
2018-05-10T03:28:01.752Z,90.94
2018-05-10T03:29:01.633Z,90.84
2018-05-10T03:30:01.572Z,90.66
2018-05-10T03:31:01.567Z,90.75
2018-05-10T03:32:01.470Z,91.32
2018-05-10T03:33:01.317Z,92.56
2018-05-10T03:34:01.244Z,92.56
2018-05-10T03:35:01.182Z,93.23
2018-05-10T03:36:01.091Z,92.46
2018-05-10T03:37:01.014Z,90.37
2018-05-10T03:38:00.947Z,89.99
2018-05-10T03:39:00.858Z,90.18
2018-05-10T03:40:00.808Z,90.66
2018-05-10T03:41:00.812Z,90.84
2018-05-10T03:42:00.626Z,91.03
2018-05-10T03:43:00.625Z,90.23
2018-05-10T03:44:00.533Z,90.75
2018-05-10T03:45:00.397Z,90.23
2018-05-10T03:46:00.332Z,89.94
2018-05-10T03:47:00.376Z,90.42
2018-05-10T03:48:00.163Z,91.47
2018-05-10T03:49:00.153Z,91.56
2018-05-10T03:50:00.052Z,92.41
2018-05-10T03:50:59.931Z,92.61
2018-05-10T03:51:59.966Z,89.85
2018-05-10T03:52:59.867Z,88.71
2018-05-10T03:53:59.700Z,88.23
2018-05-10T03:54:59.680Z,87.09
2018-05-10T03:55:59.579Z,87.09
2018-05-10T03:56:59.465Z,88.52
2018-05-10T03:57:59.496Z,88.71
2018-05-10T03:58:59.396Z,88.23
2018-05-10T03:59:59.236Z,86.71
2018-05-10T04:00:59.209Z,85.66
2018-05-10T04:01:59.109Z,87.09
2018-05-10T04:02:59.011Z,88.33
2018-05-10T04:03:59.021Z,88.61
2018-05-10T04:04:58.848Z,89.28
2018-05-10T04:05:58.869Z,90.04
2018-05-10T04:06:58.699Z,89.94
2018-05-10T04:07:58.623Z,89.94
2018-05-10T04:08:58.557Z,88.90
2018-05-10T04:09:58.558Z,88.13
2018-05-10T04:10:58.395Z,87.28
2018-05-10T04:11:58.362Z,87.09
2018-05-10T04:12:58.238Z,88.33
2018-05-10T04:13:58.176Z,89.28
2018-05-10T04:14:58.076Z,90.14
2018-05-10T04:15:58.084Z,90.52
2018-05-10T04:16:57.930Z,89.66
2018-05-10T04:17:58.920Z,88.33
2018-05-10T04:18:57.772Z,88.33
2018-05-10T04:19:57.698Z,89.09
2018-05-10T04:20:57.618Z,89.18
2018-05-10T04:21:57.608Z,88.71
2018-05-10T04:22:57.464Z,88.90
2018-05-10T04:23:57.395Z,88.71
2018-05-10T04:24:57.309Z,89.56
2018-05-10T04:25:57.234Z,89.75
2018-05-10T04:26:57.148Z,89.85
2018-05-10T04:27:57.113Z,88.71
2018-05-10T04:28:56.999Z,88.37
2018-05-10T04:29:56.930Z,88.85
2018-05-10T04:30:56.845Z,88.71
2018-05-10T04:31:56.771Z,89.61
2018-05-10T04:32:56.699Z,89.89
2018-05-10T04:33:56.658Z,91.51
2018-05-10T04:34:56.534Z,92.56
2018-05-10T04:35:56.572Z,92.46
2018-05-10T04:36:56.384Z,93.13
2018-05-10T04:37:56.305Z,93.41
2018-05-10T04:38:56.233Z,93.41
2018-05-10T04:39:56.194Z,93.41
2018-05-10T04:40:56.073Z,93.70
2018-05-10T04:41:55.997Z,94.74
2018-05-10T04:42:55.923Z,94.93
2018-05-10T04:43:55.841Z,95.22
2018-05-10T04:44:55.765Z,95.32
2018-05-10T04:45:55.713Z,95.41
2018-05-10T04:46:55.609Z,95.03
2018-05-10T04:47:55.627Z,94.65
2018-05-10T04:48:55.458Z,94.65
2018-05-10T04:49:55.451Z,94.65
2018-05-10T04:50:55.301Z,94.65
2018-05-10T04:51:55.242Z,94.65
2018-05-10T04:52:55.151Z,94.89
2018-05-10T04:53:55.153Z,94.70
2018-05-10T04:54:55.005Z,94.89
2018-05-10T04:55:54.965Z,94.60
2018-05-10T04:56:54.839Z,94.70
2018-05-10T04:57:54.872Z,95.17
2018-05-10T04:58:54.687Z,95.27
2018-05-10T04:59:54.681Z,95.27
2018-05-10T05:00:54.533Z,94.79
2018-05-10T05:01:54.490Z,94.89
2018-05-10T05:02:54.377Z,95.08
2018-05-10T05:03:54.405Z,94.79
2018-05-10T05:04:54.225Z,94.89
2018-05-10T05:05:54.220Z,94.98
2018-05-10T05:06:54.068Z,94.84
2018-05-10T05:07:54.018Z,95.03
2018-05-10T05:08:53.928Z,95.89
2018-05-10T05:09:53.925Z,95.32
2018-05-10T05:10:53.764Z,95.51
2018-05-10T05:11:53.744Z,95.70
2018-05-10T05:12:53.611Z,96.75
2018-05-10T05:13:53.648Z,97.13
2018-05-10T05:14:53.459Z,96.75
2018-05-10T05:15:53.456Z,96.75
2018-05-10T05:16:53.302Z,96.75
2018-05-10T05:17:53.264Z,96.27
2018-05-10T05:18:53.145Z,96.27
2018-05-10T05:19:53.176Z,96.46
2018-05-10T05:20:52.995Z,95.79
2018-05-10T05:21:52.982Z,95.12
2018-05-10T05:22:52.844Z,94.84
2018-05-10T05:23:52.772Z,95.03
2018-05-10T05:24:52.690Z,95.22
2018-05-10T05:25:52.617Z,95.41
2018-05-10T05:26:52.569Z,95.51
2018-05-10T05:27:52.511Z,95.98
2018-05-10T05:28:52.379Z,95.84
2018-05-10T05:29:52.307Z,96.32
2018-05-10T05:30:52.226Z,96.08
2018-05-10T05:31:52.231Z,96.17
2018-05-10T05:32:52.079Z,96.84
2018-05-10T05:33:52.050Z,96.84
2018-05-10T05:34:51.916Z,96.12
2018-05-10T05:35:51.953Z,95.84
2018-05-10T05:36:51.766Z,95.94
2018-05-10T05:37:51.761Z,95.41
2018-05-10T05:38:51.619Z,95.41
2018-05-10T05:39:51.569Z,94.79
2018-05-10T05:40:51.459Z,94.89
2018-05-10T05:41:51.477Z,94.98
2018-05-10T05:42:51.307Z,94.98
2018-05-10T05:43:51.284Z,94.60
2018-05-10T05:44:51.154Z,94.98
2018-05-10T05:45:51.085Z,95.08
2018-05-10T05:46:51.001Z,94.79
2018-05-10T05:47:51.010Z,94.70
2018-05-10T05:48:50.851Z,94.60
2018-05-10T05:49:50.812Z,94.79
2018-05-10T05:50:50.693Z,94.98
2018-05-10T05:51:50.725Z,94.60
2018-05-10T05:52:50.544Z,94.51
2018-05-10T05:53:50.465Z,95.27
2018-05-10T05:54:50.437Z,95.46
2018-05-10T05:55:50.314Z,96.03
2018-05-10T05:56:50.236Z,96.80
2018-05-10T05:57:50.254Z,96.75
2018-05-10T05:58:50.085Z,96.84
2018-05-10T05:59:50.009Z,97.22
2018-05-10T06:00:49.994Z,97.41
2018-05-10T06:01:49.973Z,98.18
2018-05-10T06:02:49.780Z,97.70
2018-05-10T06:03:49.782Z,97.61
2018-05-10T06:04:49.625Z,97.80
2018-05-10T06:05:49.550Z,97.46
2018-05-10T06:06:49.498Z,97.08
2018-05-10T06:07:49.398Z,96.70
2018-05-10T06:08:49.322Z,97.46
2018-05-10T06:09:49.310Z,96.70
2018-05-10T06:10:49.170Z,96.70
2018-05-10T06:11:49.093Z,96.98
2018-05-10T06:12:49.125Z,95.79
2018-05-10T06:13:48.940Z,95.22
2018-05-10T06:14:48.864Z,94.65
2018-05-10T06:15:48.940Z,94.17
2018-05-10T06:16:48.719Z,94.27
2018-05-10T06:17:48.638Z,93.41
2018-05-10T06:18:48.649Z,93.02
2018-05-10T06:19:48.485Z,93.36
2018-05-10T06:20:48.408Z,93.17
2018-05-10T06:21:48.367Z,93.65
2018-05-10T06:22:48.256Z,92.60
2018-05-10T06:23:48.183Z,92.50
2018-05-10T06:24:48.229Z,91.36
2018-05-10T06:25:48.027Z,91.55
2018-05-10T06:26:47.952Z,91.21
2018-05-10T06:27:47.896Z,90.35
2018-05-10T06:28:47.801Z,89.39
2018-05-10T06:29:47.725Z,89.11
2018-05-10T06:30:47.710Z,88.82
2018-05-10T06:31:47.573Z,88.68
2018-05-10T06:32:47.499Z,87.34
2018-05-10T06:33:47.525Z,87.72
2018-05-10T06:34:47.346Z,86.10
2018-05-10T06:35:47.272Z,85.66
2018-05-10T06:36:47.204Z,84.61
2018-05-10T06:37:47.118Z,84.99
2018-05-10T06:38:47.047Z,84.42
2018-05-10T06:39:46.978Z,83.65
2018-05-10T06:40:46.944Z,83.27
2018-05-10T06:41:46.818Z,83.37
2018-05-10T06:42:46.763Z,82.89
2018-05-10T06:43:46.666Z,82.22
2018-05-10T06:44:46.589Z,82.31
2018-05-10T06:45:46.579Z,82.45
2018-05-10T06:46:46.521Z,82.64
2018-05-10T06:47:46.374Z,82.26
2018-05-10T06:48:46.395Z,82.35
2018-05-10T06:49:46.218Z,82.54
2018-05-10T06:50:46.141Z,82.64
2018-05-10T06:51:46.108Z,82.74
2018-05-10T06:52:45.987Z,82.35
2018-05-10T06:53:45.921Z,82.07
2018-05-10T06:54:45.927Z,81.92
2018-05-10T06:55:45.764Z,82.01
2018-05-10T06:56:45.689Z,81.92
2018-05-10T06:57:45.636Z,82.11
2018-05-10T06:58:45.544Z,81.34
2018-05-10T06:59:45.468Z,81.05
2018-05-10T07:00:45.396Z,81.25
2018-05-10T07:01:45.362Z,79.37
2018-05-10T07:02:45.243Z,78.80
2018-05-10T07:03:45.268Z,79.28
2018-05-10T07:04:45.093Z,79.47
2018-05-10T07:05:45.017Z,80.14
2018-05-10T07:06:44.951Z,80.24
2018-05-10T07:07:44.870Z,79.47
2018-05-10T07:08:44.797Z,78.32
2018-05-10T07:09:44.875Z,78.45
2018-05-10T07:10:44.647Z,79.03
2018-05-10T07:11:44.571Z,77.78
2018-05-10T07:12:44.500Z,76.64
2018-05-10T07:13:44.516Z,75.20
2018-05-10T07:14:44.346Z,76.06
2018-05-10T07:15:44.324Z,76.10
2018-05-10T07:16:44.200Z,74.57
2018-05-10T07:17:44.130Z,73.41
2018-05-10T07:18:44.054Z,74.37
2018-05-10T07:19:43.987Z,74.98
2018-05-10T07:20:43.905Z,74.22
2018-05-10T07:21:43.840Z,74.22
2018-05-10T07:22:43.760Z,73.07
2018-05-10T07:23:43.685Z,73.26
2018-05-10T07:24:43.627Z,72.72
2018-05-10T07:25:43.537Z,72.05
2018-05-10T07:26:43.469Z,71.76
2018-05-10T07:27:43.404Z,71.19
2018-05-10T07:28:43.315Z,70.23
2018-05-10T07:29:43.243Z,71.19
2018-05-10T07:30:43.178Z,70.36
2018-05-10T07:31:43.107Z,69.30
2018-05-10T07:32:43.028Z,69.20
2018-05-10T07:33:42.965Z,68.24
2018-05-10T07:34:42.874Z,69.91
2018-05-10T07:35:42.813Z,69.14
2018-05-10T07:36:42.739Z,67.41
2018-05-10T07:37:42.661Z,66.36
2018-05-10T07:38:42.589Z,66.36
2018-05-10T07:39:42.522Z,66.10
2018-05-10T07:40:42.438Z,66.20
2018-05-10T07:41:42.372Z,67.07
2018-05-10T07:42:42.308Z,65.91
2018-05-10T07:43:42.221Z,66.20
2018-05-10T07:44:42.154Z,66.61
2018-05-10T07:45:42.087Z,65.66
2018-05-10T07:46:42.021Z,64.79
2018-05-10T07:47:41.952Z,64.79
2018-05-10T07:48:41.865Z,64.69
2018-05-10T07:49:41.811Z,63.38
2018-05-10T07:50:41.721Z,62.41
2018-05-10T07:51:41.695Z,62.03
2018-05-10T07:52:41.574Z,62.71
2018-05-10T07:53:41.502Z,61.84
2018-05-10T07:54:41.510Z,61.26
2018-05-10T07:55:41.363Z,60.49
2018-05-10T07:56:41.288Z,60.30
2018-05-10T07:57:41.248Z,60.30
2018-05-10T07:58:41.234Z,60.97
2018-05-10T07:59:41.075Z,60.52
2018-05-10T08:00:41.044Z,60.81
2018-05-10T08:01:40.932Z,61.00
2018-05-10T08:02:40.860Z,62.45
2018-05-10T08:03:40.789Z,60.84
2018-05-10T08:04:40.758Z,60.17
2018-05-10T08:05:40.651Z,60.27
2018-05-10T08:06:40.674Z,59.30
2018-05-10T08:07:40.511Z,59.78
2018-05-10T08:08:40.435Z,60.46
2018-05-10T08:09:40.381Z,60.17
2018-05-10T08:10:40.299Z,60.07
2018-05-10T08:11:40.228Z,59.49
2018-05-10T08:12:40.202Z,59.01
2018-05-10T08:13:40.087Z,59.43
2018-05-10T08:14:40.017Z,58.85
2018-05-10T08:15:40.013Z,56.82
2018-05-10T08:16:39.874Z,56.63
2018-05-10T08:17:39.805Z,57.02
2018-05-10T08:18:39.733Z,56.82
2018-05-10T08:19:39.735Z,58.08
2018-05-10T08:20:39.591Z,58.85
2018-05-10T08:21:39.540Z,59.75
2018-05-10T08:22:39.459Z,58.11
2018-05-10T08:23:39.384Z,57.82
2018-05-10T08:24:39.312Z,56.85
2018-05-10T08:25:39.263Z,57.34
2018-05-10T08:26:39.174Z,56.66
2018-05-10T08:27:40.036Z,55.31
2018-05-10T08:28:39.033Z,54.28
2018-05-10T08:29:38.965Z,55.15
2018-05-10T08:30:38.987Z,55.51
2018-05-10T08:31:38.832Z,56.49
2018-05-10T08:32:38.762Z,56.21
2018-05-10T08:33:38.801Z,54.28
2018-05-10T08:34:38.617Z,54.66
2018-05-10T08:35:38.546Z,53.99
2018-05-10T08:36:38.535Z,52.64
2018-05-10T08:37:38.411Z,52.83
2018-05-10T08:38:38.340Z,53.89
2018-05-10T08:39:38.331Z,52.83
2018-05-10T08:40:38.207Z,54.18
2018-05-10T08:41:38.135Z,53.92
2018-05-10T08:42:38.066Z,55.56
2018-05-10T08:43:38.050Z,55.85
2018-05-10T08:44:37.933Z,53.27
2018-05-10T08:45:37.961Z,51.61
2018-05-10T08:46:37.790Z,50.84
2018-05-10T08:47:37.726Z,50.74
2018-05-10T08:48:37.654Z,51.89
2018-05-10T08:49:37.685Z,51.99
2018-05-10T08:50:37.515Z,51.41
2018-05-10T08:51:37.489Z,50.64
2018-05-10T08:52:37.385Z,51.51
2018-05-10T08:53:37.311Z,52.11
2018-05-10T08:54:37.243Z,52.98
2018-05-10T08:55:37.207Z,52.50
2018-05-10T08:56:37.213Z,54.36
2018-05-10T08:57:37.035Z,51.65
2018-05-10T08:58:37.026Z,50.59
2018-05-10T08:59:36.903Z,49.92
2018-05-10T09:00:36.936Z,47.58
2018-05-10T09:01:36.765Z,46.42
2018-05-10T09:02:36.714Z,48.74
2018-05-10T09:03:36.631Z,47.75
2018-05-10T09:04:36.653Z,46.59
2018-05-10T09:05:37.585Z,46.49
2018-05-10T09:06:36.422Z,46.78
2018-05-10T09:07:36.472Z,48.81
2018-05-10T09:08:47.132Z,50.09
2018-05-10T09:09:36.221Z,48.64
2018-05-10T09:10:36.184Z,48.83
2018-05-10T09:11:36.190Z,50.09
2018-05-10T09:12:36.020Z,50.59
2018-05-10T09:13:36.005Z,49.53
2018-05-10T09:14:36.005Z,51.49
2018-05-10T09:15:35.820Z,49.85
2018-05-10T09:16:35.813Z,46.95
2018-05-10T09:17:35.717Z,47.14
2018-05-10T09:18:35.614Z,48.71
2018-05-10T09:19:35.628Z,46.58
2018-05-10T09:20:35.533Z,47.94
2018-05-10T09:21:35.409Z,48.74
2018-05-10T09:22:35.446Z,46.80
2018-05-10T09:23:35.347Z,44.67
2018-05-10T09:24:35.209Z,45.35
2018-05-10T09:25:35.261Z,41.87
2018-05-10T09:26:35.161Z,41.09
2018-05-10T09:27:35.009Z,41.66
2018-05-10T09:28:34.973Z,43.30
2018-05-10T09:29:34.993Z,43.01
2018-05-10T09:30:34.809Z,42.91
2018-05-10T09:31:34.873Z,41.56
2018-05-10T09:32:34.695Z,40.69
2018-05-10T09:33:34.607Z,40.30
2018-05-10T09:34:34.604Z,39.34
2018-05-10T09:35:34.510Z,40.71
2018-05-10T09:36:34.407Z,42.16
2018-05-10T09:37:34.337Z,43.03
2018-05-10T09:38:34.273Z,43.23
2018-05-10T09:39:34.361Z,43.44
2018-05-10T09:40:34.232Z,39.36
2018-05-10T09:41:34.135Z,37.90
2018-05-10T09:42:34.009Z,38.08
2018-05-10T09:43:34.048Z,37.60
2018-05-10T09:44:33.951Z,38.66
2018-05-10T09:45:33.809Z,40.20
2018-05-10T09:46:33.759Z,40.40
2018-05-10T09:47:33.766Z,39.06
2018-05-10T09:48:33.609Z,38.87
2018-05-10T09:49:33.577Z,40.23
2018-05-10T09:50:33.583Z,41.60
2018-05-10T09:51:33.407Z,38.02
2018-05-10T09:52:33.395Z,38.79
2018-05-10T09:53:33.295Z,39.78
2018-05-10T09:54:33.217Z,38.62
2018-05-10T09:55:33.203Z,38.43
2018-05-10T09:56:33.116Z,37.96
2018-05-10T09:57:33.013Z,37.57
2018-05-10T09:58:33.020Z,36.80
2018-05-10T09:59:32.926Z,37.30
2018-05-10T10:00:32.812Z,38.66
2018-05-10T10:01:32.838Z,37.11
2018-05-10T10:02:32.740Z,37.30
2018-05-10T10:03:32.615Z,37.67
2018-05-10T10:04:32.652Z,38.15
2018-05-10T10:05:32.557Z,37.46
2018-05-10T10:06:32.420Z,39.32
2018-05-10T10:07:32.468Z,38.71
2018-05-10T10:08:32.428Z,38.71
2018-05-10T10:09:32.223Z,39.11
2018-05-10T10:10:32.186Z,39.18
2018-05-10T10:11:32.196Z,39.88
2018-05-10T10:12:32.027Z,39.88
2018-05-10T10:13:32.001Z,41.74
2018-05-10T10:14:32.007Z,39.12
2018-05-10T10:15:31.832Z,38.64
2018-05-10T10:16:31.815Z,40.58
2018-05-10T10:17:31.760Z,42.34
2018-05-10T10:18:31.631Z,43.60
2018-05-10T10:19:31.627Z,42.63
2018-05-10T10:20:31.539Z,41.76
2018-05-10T10:21:31.440Z,40.59
2018-05-10T10:22:31.439Z,40.89
2018-05-10T10:23:31.346Z,41.95
2018-05-10T10:24:31.246Z,41.06
2018-05-10T10:25:31.256Z,39.90
2018-05-10T10:26:31.159Z,39.80
2018-05-10T10:27:31.045Z,40.86
2018-05-10T10:28:31.073Z,41.64
2018-05-10T10:29:30.976Z,39.90
2018-05-10T10:30:30.879Z,39.51
2018-05-10T10:31:30.884Z,40.01
2018-05-10T10:32:30.856Z,40.11
2018-05-10T10:33:30.656Z,39.43
2018-05-10T10:34:30.732Z,40.59
2018-05-10T10:35:30.605Z,41.56
2018-05-10T10:36:30.460Z,40.31
2018-05-10T10:37:30.430Z,39.82
2018-05-10T10:38:30.418Z,39.53
2018-05-10T10:39:30.265Z,39.41
2018-05-10T10:40:30.227Z,40.00
2018-05-10T10:41:30.243Z,40.67
2018-05-10T10:42:30.072Z,40.48
2018-05-10T10:43:30.044Z,40.56
2018-05-10T10:44:30.057Z,41.33
2018-05-10T10:45:29.909Z,40.75
2018-05-10T10:46:29.865Z,41.62
2018-05-10T10:47:29.762Z,41.70
2018-05-10T10:48:29.674Z,40.44
2018-05-10T10:49:29.681Z,39.86
2018-05-10T10:50:29.583Z,40.44
2018-05-10T10:51:29.476Z,40.44
2018-05-10T10:52:29.493Z,41.50
2018-05-10T10:53:29.348Z,41.67
2018-05-10T10:54:29.303Z,41.97
2018-05-10T10:55:29.215Z,41.87
2018-05-10T10:56:29.152Z,40.61
2018-05-10T10:57:29.079Z,40.23
2018-05-10T10:58:29.121Z,40.50
2018-05-10T10:59:28.946Z,40.50
2018-05-10T11:00:28.936Z,40.30
2018-05-10T11:01:28.828Z,40.69
2018-05-10T11:02:28.753Z,43.40
2018-05-10T11:03:28.682Z,44.94
2018-05-10T11:04:28.651Z,44.75
2018-05-10T11:05:28.555Z,44.96
2018-05-10T11:06:28.559Z,45.45
2018-05-10T11:07:28.433Z,46.44
2018-05-10T11:08:28.353Z,44.98
2018-05-10T11:09:28.290Z,44.02
2018-05-10T11:10:28.282Z,43.54
2018-05-10T11:11:28.159Z,43.65
2018-05-10T11:12:28.190Z,43.46
2018-05-10T11:13:28.027Z,44.79
2018-05-10T11:14:27.961Z,44.81
2018-05-10T11:15:27.894Z,43.95
2018-05-10T11:16:27.911Z,41.89
2018-05-10T11:17:27.765Z,43.15
2018-05-10T11:18:27.723Z,42.57
2018-05-10T11:19:27.629Z,40.52
2018-05-10T11:20:27.561Z,41.08
2018-05-10T11:21:27.511Z,41.15
2018-05-10T11:22:27.548Z,42.31
2018-05-10T11:23:27.364Z,43.37
2018-05-10T11:24:27.347Z,44.53
2018-05-10T11:25:27.233Z,44.22
2018-05-10T11:26:27.169Z,45.00
2018-05-10T11:27:27.207Z,47.29
2018-05-10T11:28:27.071Z,48.81
2018-05-10T11:29:26.970Z,49.75
2018-05-10T11:30:26.987Z,50.81
2018-05-10T11:31:26.836Z,52.04
2018-05-10T11:32:26.764Z,53.36
2018-05-10T11:33:26.701Z,54.13
2018-05-10T11:34:26.700Z,54.32
2018-05-10T11:35:26.574Z,54.71
2018-05-10T11:36:26.613Z,55.38
2018-05-10T11:37:26.443Z,55.48
2018-05-10T11:38:26.368Z,55.09
2018-05-10T11:39:26.301Z,55.19
2018-05-10T11:40:26.331Z,55.09
2018-05-10T11:41:26.169Z,55.16
2018-05-10T11:42:26.141Z,55.55
2018-05-10T11:43:26.032Z,55.93
2018-05-10T11:44:25.985Z,55.65
2018-05-10T11:45:25.899Z,56.96
2018-05-10T11:46:25.860Z,58.70
2018-05-10T11:47:25.780Z,59.82
2018-05-10T11:48:25.771Z,59.92
2018-05-10T11:49:25.634Z,60.01
2018-05-10T11:50:25.616Z,60.30
2018-05-10T11:51:25.486Z,60.49
2018-05-10T11:52:25.488Z,60.78
2018-05-10T11:53:25.348Z,61.74
2018-05-10T11:54:25.303Z,61.52
2018-05-10T11:55:25.213Z,63.06
2018-05-10T11:56:25.206Z,64.40
2018-05-10T11:57:25.121Z,65.43
2018-05-10T11:58:25.120Z,65.43
2018-05-10T11:59:24.935Z,66.39
2018-05-10T12:00:24.928Z,66.87
2018-05-10T12:01:24.802Z,67.13
2018-05-10T12:02:24.842Z,67.99
2018-05-10T12:03:24.659Z,68.47
2018-05-10T12:04:24.651Z,68.47
2018-05-10T12:05:24.517Z,68.57
2018-05-10T12:06:24.559Z,69.20
2018-05-10T12:07:24.388Z,70.70
2018-05-10T12:08:24.366Z,71.09
2018-05-10T12:09:24.242Z,71.86
2018-05-10T12:10:24.277Z,70.70
2018-05-10T12:11:24.106Z,71.19
2018-05-10T12:12:24.099Z,71.19
2018-05-10T12:13:24.019Z,72.05
2018-05-10T12:14:24.004Z,71.86
2018-05-10T12:15:23.823Z,72.53
2018-05-10T12:16:23.762Z,72.43
2018-05-10T12:17:23.681Z,73.20
2018-05-10T12:18:23.719Z,73.87
2018-05-10T12:19:23.538Z,73.83
2018-05-10T12:20:23.548Z,74.60
2018-05-10T12:21:23.396Z,75.65
2018-05-10T12:22:23.440Z,76.42
2018-05-10T12:23:23.254Z,76.62
2018-05-10T12:24:23.247Z,77.34
2018-05-10T12:25:23.113Z,77.15
2018-05-10T12:26:23.162Z,77.53
2018-05-10T12:27:22.973Z,77.82
2018-05-10T12:28:22.968Z,78.27
2018-05-10T12:29:22.826Z,78.27
2018-05-10T12:30:22.777Z,78.84
2018-05-10T12:31:22.687Z,80.08
2018-05-10T12:32:22.684Z,79.80
2018-05-10T12:33:22.540Z,80.08
2018-05-10T12:34:22.489Z,79.28
2018-05-10T12:35:22.405Z,79.66
2018-05-10T12:36:22.408Z,79.41
2018-05-10T12:37:22.258Z,79.03
2018-05-10T12:38:22.214Z,77.78
2018-05-10T12:39:22.114Z,77.59
2018-05-10T12:40:22.131Z,77.59
2018-05-10T12:41:21.977Z,77.21
2018-05-10T12:42:21.933Z,77.65
2018-05-10T12:43:21.825Z,78.51
2018-05-10T12:44:21.844Z,78.22
2018-05-10T12:45:21.693Z,77.55
2018-05-10T12:46:21.653Z,76.50
2018-05-10T12:47:21.541Z,76.31
2018-05-10T12:48:21.470Z,76.02
2018-05-10T12:49:21.468Z,76.21
2018-05-10T12:50:21.320Z,75.26
2018-05-10T12:51:21.250Z,75.64